Capitol Logistics 387




KPHL
Philadelphia International Airport
Philadelphia, Pennsylvania
KCVG
Cincinnati/Northern Kentucky International Airport
Covington, Kentucky

Activity Log

Date Flight Route Aircraft Duration
09/23/2019 CPX442 MXE PENSY J110 FLIRT J6 MRB J6 COLNS GAVNN4 B738 1h 37m

Route Details

Aircraft Information
Group: North America Fleet
Types: B738,B752,B762,B763
Route Data
Demand: V
Distance: 440nm
Duration: 1h 18m
Recm'd Route: MXE PENSY J110 FLIRT J6 MRB J6 COLNS GAVNN6
Origin Wx: KPHL 270558Z 18003KT 3/4SM R09R/4000V5000FT BR OVC002 19/19 A3004 RMK AO2 T01940189
Dest. Wx: KCVG 270552Z 23005KT 10SM FEW060 16/16 A2982 RMK AO2 RAB0453E05 SLP089 P0000 60005 T01610156 10200 20161 58001 $
Notes:

Financial History
Total Freight: 25,872lbs
Average Load: 25,872lbs/flt
Fuel Used: 7,833lbs
Avg. Fuel Used: 7,833lbs/flt
Fuel Expense: $7,050
Avg. Fuel Expense: $7,050
Avg. Fuel Cost: $0.90/lbs
Total Gross Income: $32,857
Pilot Pay: $229
Total Expenses: $3,601
Total Revenue: $21,817
Average Revenue: $32,857.40